sensor_id;sensor_type;location;lat;lon;timestamp;P1;durP1;ratioP1;P2;durP2;ratioP2
64871;SDS011;51351;51.450;6.614;2023-08-20T00:01:45;6.47;;;5.55;;
64871;SDS011;51351;51.450;6.614;2023-08-20T00:04:11;9.15;;;5.25;;
64871;SDS011;51351;51.450;6.614;2023-08-20T00:06:37;7.75;;;6.15;;
64871;SDS011;51351;51.450;6.614;2023-08-20T00:09:03;9.02;;;5.93;;
64871;SDS011;51351;51.450;6.614;2023-08-20T00:11:31;8.88;;;5.82;;
64871;SDS011;51351;51.450;6.614;2023-08-20T00:13:56;10.20;;;5.97;;
64871;SDS011;51351;51.450;6.614;2023-08-20T00:16:22;8.90;;;5.93;;
64871;SDS011;51351;51.450;6.614;2023-08-20T00:18:48;9.75;;;6.22;;
64871;SDS011;51351;51.450;6.614;2023-08-20T00:21:13;8.02;;;5.85;;
64871;SDS011;51351;51.450;6.614;2023-08-20T00:23:39;11.57;;;6.10;;
64871;SDS011;51351;51.450;6.614;2023-08-20T00:26:05;10.35;;;5.95;;
64871;SDS011;51351;51.450;6.614;2023-08-20T00:28:31;9.02;;;5.50;;
64871;SDS011;51351;51.450;6.614;2023-08-20T00:30:59;8.15;;;6.40;;
64871;SDS011;51351;51.450;6.614;2023-08-20T00:33:26;12.05;;;6.07;;
64871;SDS011;51351;51.450;6.614;2023-08-20T00:35:51;8.95;;;6.30;;
64871;SDS011;51351;51.450;6.614;2023-08-20T00:38:17;9.00;;;6.47;;
64871;SDS011;51351;51.450;6.614;2023-08-20T00:40:43;10.25;;;6.25;;
64871;SDS011;51351;51.450;6.614;2023-08-20T00:43:08;9.73;;;5.30;;
64871;SDS011;51351;51.450;6.614;2023-08-20T00:45:34;6.90;;;5.00;;
64871;SDS011;51351;51.450;6.614;2023-08-20T00:47:59;9.88;;;5.93;;
64871;SDS011;51351;51.450;6.614;2023-08-20T00:50:25;12.13;;;8.45;;
64871;SDS011;51351;51.450;6.614;2023-08-20T00:52:51;12.85;;;7.10;;
64871;SDS011;51351;51.450;6.614;2023-08-20T00:55:16;14.73;;;9.32;;
64871;SDS011;51351;51.450;6.614;2023-08-20T00:57:42;11.65;;;7.45;;
64871;SDS011;51351;51.450;6.614;2023-08-20T01:00:08;12.43;;;7.57;;
64871;SDS011;51351;51.450;6.614;2023-08-20T01:02:36;10.90;;;6.45;;
64871;SDS011;51351;51.450;6.614;2023-08-20T01:05:02;11.07;;;6.50;;
64871;SDS011;51351;51.450;6.614;2023-08-20T01:12:39;10.95;;;6.93;;
64871;SDS011;51351;51.450;6.614;2023-08-20T01:15:07;8.73;;;7.05;;
64871;SDS011;51351;51.450;6.614;2023-08-20T01:17:42;10.57;;;6.47;;
64871;SDS011;51351;51.450;6.614;2023-08-20T01:20:08;15.18;;;7.38;;
64871;SDS011;51351;51.450;6.614;2023-08-20T01:25:48;11.23;;;6.30;;
64871;SDS011;51351;51.450;6.614;2023-08-20T01:28:26;10.98;;;7.10;;
64871;SDS011;51351;51.450;6.614;2023-08-20T01:30:53;10.25;;;6.00;;
64871;SDS011;51351;51.450;6.614;2023-08-20T01:33:21;8.75;;;5.95;;
64871;SDS011;51351;51.450;6.614;2023-08-20T01:35:53;10.30;;;5.85;;
64871;SDS011;51351;51.450;6.614;2023-08-20T01:38:19;10.52;;;6.07;;
64871;SDS011;51351;51.450;6.614;2023-08-20T01:40:45;8.60;;;6.35;;
64871;SDS011;51351;51.450;6.614;2023-08-20T01:43:12;8.20;;;5.90;;
64871;SDS011;51351;51.450;6.614;2023-08-20T01:45:37;9.65;;;6.30;;
64871;SDS011;51351;51.450;6.614;2023-08-20T01:48:03;11.27;;;7.45;;
64871;SDS011;51351;51.450;6.614;2023-08-20T01:50:31;9.20;;;6.22;;
64871;SDS011;51351;51.450;6.614;2023-08-20T01:52:58;8.93;;;6.68;;
64871;SDS011;51351;51.450;6.614;2023-08-20T01:55:23;10.18;;;6.32;;
64871;SDS011;51351;51.450;6.614;2023-08-20T01:57:49;11.50;;;6.93;;
64871;SDS011;51351;51.450;6.614;2023-08-20T02:00:14;9.85;;;6.93;;
64871;SDS011;51351;51.450;6.614;2023-08-20T02:02:39;9.20;;;6.35;;
64871;SDS011;51351;51.450;6.614;2023-08-20T02:05:05;12.98;;;7.05;;
64871;SDS011;51351;51.450;6.614;2023-08-20T02:07:31;9.52;;;6.13;;
64871;SDS011;51351;51.450;6.614;2023-08-20T02:09:58;11.07;;;6.82;;
64871;SDS011;51351;51.450;6.614;2023-08-20T02:12:25;7.72;;;5.53;;
64871;SDS011;51351;51.450;6.614;2023-08-20T02:14:52;10.20;;;6.47;;
64871;SDS011;51351;51.450;6.614;2023-08-20T02:17:21;11.27;;;6.45;;
64871;SDS011;51351;51.450;6.614;2023-08-20T02:22:12;13.40;;;6.20;;
64871;SDS011;51351;51.450;6.614;2023-08-20T02:24:38;12.25;;;7.53;;
64871;SDS011;51351;51.450;6.614;2023-08-20T02:27:03;9.07;;;6.07;;
64871;SDS011;51351;51.450;6.614;2023-08-20T02:29:29;8.07;;;5.88;;
64871;SDS011;51351;51.450;6.614;2023-08-20T02:31:54;9.18;;;6.97;;
64871;SDS011;51351;51.450;6.614;2023-08-20T02:34:20;8.10;;;5.80;;
64871;SDS011;51351;51.450;6.614;2023-08-20T02:36:46;13.65;;;6.70;;
64871;SDS011;51351;51.450;6.614;2023-08-20T02:39:13;11.25;;;7.40;;
64871;SDS011;51351;51.450;6.614;2023-08-20T02:41:40;11.55;;;7.95;;
64871;SDS011;51351;51.450;6.614;2023-08-20T02:44:08;10.30;;;7.15;;
64871;SDS011;51351;51.450;6.614;2023-08-20T02:46:33;11.52;;;7.22;;
64871;SDS011;51351;51.450;6.614;2023-08-20T02:48:58;12.90;;;8.10;;
64871;SDS011;51351;51.450;6.614;2023-08-20T02:51:26;13.90;;;7.88;;
64871;SDS011;51351;51.450;6.614;2023-08-20T02:53:52;12.95;;;8.15;;
64871;SDS011;51351;51.450;6.614;2023-08-20T02:56:17;14.38;;;8.60;;
64871;SDS011;51351;51.450;6.614;2023-08-20T02:58:43;12.20;;;8.05;;
64871;SDS011;51351;51.450;6.614;2023-08-20T03:01:17;13.20;;;7.97;;
64871;SDS011;51351;51.450;6.614;2023-08-20T03:03:43;14.15;;;7.32;;
64871;SDS011;51351;51.450;6.614;2023-08-20T03:06:09;12.80;;;8.02;;
64871;SDS011;51351;51.450;6.614;2023-08-20T03:08:34;13.38;;;8.20;;
64871;SDS011;51351;51.450;6.614;2023-08-20T03:11:00;12.00;;;7.97;;
64871;SDS011;51351;51.450;6.614;2023-08-20T03:13:25;12.93;;;8.15;;
64871;SDS011;51351;51.450;6.614;2023-08-20T03:15:51;11.43;;;8.07;;
64871;SDS011;51351;51.450;6.614;2023-08-20T03:18:16;12.10;;;7.97;;
64871;SDS011;51351;51.450;6.614;2023-08-20T03:20:42;14.50;;;7.95;;
64871;SDS011;51351;51.450;6.614;2023-08-20T03:23:07;12.98;;;7.80;;
64871;SDS011;51351;51.450;6.614;2023-08-20T03:25:33;15.48;;;9.25;;
64871;SDS011;51351;51.450;6.614;2023-08-20T03:27:59;14.55;;;7.68;;
64871;SDS011;51351;51.450;6.614;2023-08-20T03:30:25;13.38;;;7.07;;
64871;SDS011;51351;51.450;6.614;2023-08-20T03:32:50;14.43;;;7.90;;
64871;SDS011;51351;51.450;6.614;2023-08-20T03:35:16;12.85;;;7.40;;
64871;SDS011;51351;51.450;6.614;2023-08-20T03:37:41;11.82;;;7.07;;
64871;SDS011;51351;51.450;6.614;2023-08-20T03:40:07;11.50;;;7.00;;
64871;SDS011;51351;51.450;6.614;2023-08-20T03:42:33;10.68;;;7.35;;
64871;SDS011;51351;51.450;6.614;2023-08-20T03:44:58;13.40;;;7.80;;
64871;SDS011;51351;51.450;6.614;2023-08-20T03:47:23;11.07;;;8.23;;
64871;SDS011;51351;51.450;6.614;2023-08-20T03:49:49;14.32;;;8.85;;
64871;SDS011;51351;51.450;6.614;2023-08-20T03:52:14;16.00;;;8.52;;
64871;SDS011;51351;51.450;6.614;2023-08-20T03:54:41;13.70;;;8.23;;
64871;SDS011;51351;51.450;6.614;2023-08-20T03:57:07;10.80;;;7.65;;
64871;SDS011;51351;51.450;6.614;2023-08-20T03:59:32;11.02;;;8.15;;
64871;SDS011;51351;51.450;6.614;2023-08-20T04:01:58;14.80;;;7.93;;
64871;SDS011;51351;51.450;6.614;2023-08-20T04:04:24;14.23;;;8.50;;
64871;SDS011;51351;51.450;6.614;2023-08-20T04:06:50;13.88;;;8.13;;
64871;SDS011;51351;51.450;6.614;2023-08-20T04:09:16;16.30;;;9.05;;
64871;SDS011;51351;51.450;6.614;2023-08-20T04:11:42;17.92;;;10.85;;
64871;SDS011;51351;51.450;6.614;2023-08-20T04:14:08;14.18;;;9.32;;
64871;SDS011;51351;51.450;6.614;2023-08-20T04:16:34;27.35;;;15.90;;
64871;SDS011;51351;51.450;6.614;2023-08-20T04:18:59;22.17;;;14.15;;
64871;SDS011;51351;51.450;6.614;2023-08-20T04:21:25;19.10;;;10.82;;
64871;SDS011;51351;51.450;6.614;2023-08-20T04:23:51;13.63;;;9.18;;
64871;SDS011;51351;51.450;6.614;2023-08-20T04:26:16;14.65;;;9.25;;
64871;SDS011;51351;51.450;6.614;2023-08-20T04:28:42;14.55;;;8.90;;
64871;SDS011;51351;51.450;6.614;2023-08-20T04:31:08;13.23;;;9.43;;
64871;SDS011;51351;51.450;6.614;2023-08-20T04:33:45;14.55;;;9.35;;
64871;SDS011;51351;51.450;6.614;2023-08-20T04:36:13;15.85;;;9.98;;
64871;SDS011;51351;51.450;6.614;2023-08-20T04:38:38;15.13;;;8.35;;
64871;SDS011;51351;51.450;6.614;2023-08-20T04:41:04;16.05;;;8.57;;
64871;SDS011;51351;51.450;6.614;2023-08-20T04:45:57;17.35;;;8.65;;
64871;SDS011;51351;51.450;6.614;2023-08-20T04:48:23;11.38;;;7.00;;
64871;SDS011;51351;51.450;6.614;2023-08-20T04:50:48;13.30;;;7.97;;
64871;SDS011;51351;51.450;6.614;2023-08-20T04:53:14;14.57;;;7.60;;
64871;SDS011;51351;51.450;6.614;2023-08-20T04:55:41;12.30;;;8.32;;
64871;SDS011;51351;51.450;6.614;2023-08-20T04:58:07;13.88;;;8.13;;
64871;SDS011;51351;51.450;6.614;2023-08-20T05:00:34;11.82;;;8.52;;
64871;SDS011;51351;51.450;6.614;2023-08-20T05:03:05;13.20;;;9.07;;
64871;SDS011;51351;51.450;6.614;2023-08-20T05:05:30;12.65;;;8.98;;
64871;SDS011;51351;51.450;6.614;2023-08-20T05:07:56;17.27;;;10.45;;
64871;SDS011;51351;51.450;6.614;2023-08-20T05:10:22;14.68;;;9.00;;
64871;SDS011;51351;51.450;6.614;2023-08-20T05:12:47;18.33;;;10.35;;
64871;SDS011;51351;51.450;6.614;2023-08-20T05:15:13;17.27;;;10.25;;
64871;SDS011;51351;51.450;6.614;2023-08-20T05:17:39;17.27;;;9.68;;
64871;SDS011;51351;51.450;6.614;2023-08-20T05:20:06;13.35;;;9.10;;
64871;SDS011;51351;51.450;6.614;2023-08-20T05:22:31;15.63;;;10.38;;
64871;SDS011;51351;51.450;6.614;2023-08-20T05:24:57;12.40;;;9.43;;
64871;SDS011;51351;51.450;6.614;2023-08-20T05:27:22;18.55;;;10.40;;
64871;SDS011;51351;51.450;6.614;2023-08-20T05:29:49;19.45;;;14.75;;
64871;SDS011;51351;51.450;6.614;2023-08-20T05:32:16;18.33;;;13.30;;
64871;SDS011;51351;51.450;6.614;2023-08-20T05:34:42;19.73;;;14.82;;
64871;SDS011;51351;51.450;6.614;2023-08-20T05:37:08;17.75;;;12.98;;
64871;SDS011;51351;51.450;6.614;2023-08-20T05:39:43;20.00;;;12.27;;
64871;SDS011;51351;51.450;6.614;2023-08-20T05:42:09;16.55;;;8.55;;
64871;SDS011;51351;51.450;6.614;2023-08-20T05:44:36;14.18;;;8.70;;
64871;SDS011;51351;51.450;6.614;2023-08-20T05:47:02;13.00;;;8.25;;
64871;SDS011;51351;51.450;6.614;2023-08-20T05:49:28;14.95;;;8.43;;
64871;SDS011;51351;51.450;6.614;2023-08-20T05:51:53;15.05;;;9.07;;
64871;SDS011;51351;51.450;6.614;2023-08-20T05:54:19;11.93;;;7.20;;
64871;SDS011;51351;51.450;6.614;2023-08-20T05:56:45;12.75;;;8.15;;
64871;SDS011;51351;51.450;6.614;2023-08-20T05:59:10;13.60;;;8.48;;
64871;SDS011;51351;51.450;6.614;2023-08-20T06:01:36;14.15;;;8.40;;
64871;SDS011;51351;51.450;6.614;2023-08-20T06:04:02;16.33;;;10.60;;
64871;SDS011;51351;51.450;6.614;2023-08-20T06:06:27;16.40;;;12.38;;
64871;SDS011;51351;51.450;6.614;2023-08-20T06:08:53;20.98;;;13.43;;
64871;SDS011;51351;51.450;6.614;2023-08-20T06:11:19;19.15;;;14.35;;
64871;SDS011;51351;51.450;6.614;2023-08-20T06:13:45;20.23;;;13.90;;
64871;SDS011;51351;51.450;6.614;2023-08-20T06:16:10;24.38;;;13.82;;
64871;SDS011;51351;51.450;6.614;2023-08-20T06:18:36;20.08;;;13.52;;
64871;SDS011;51351;51.450;6.614;2023-08-20T06:21:02;15.15;;;10.45;;
64871;SDS011;51351;51.450;6.614;2023-08-20T06:23:28;19.77;;;11.52;;
64871;SDS011;51351;51.450;6.614;2023-08-20T06:25:53;17.02;;;12.75;;
64871;SDS011;51351;51.450;6.614;2023-08-20T06:28:19;17.00;;;11.00;;
64871;SDS011;51351;51.450;6.614;2023-08-20T06:30:44;19.42;;;11.15;;
64871;SDS011;51351;51.450;6.614;2023-08-20T06:33:10;16.92;;;11.57;;
64871;SDS011;51351;51.450;6.614;2023-08-20T06:38:02;19.60;;;11.50;;
64871;SDS011;51351;51.450;6.614;2023-08-20T06:40:27;15.77;;;11.90;;
64871;SDS011;51351;51.450;6.614;2023-08-20T06:42:53;17.00;;;11.32;;
64871;SDS011;51351;51.450;6.614;2023-08-20T06:47:44;18.00;;;12.80;;
64871;SDS011;51351;51.450;6.614;2023-08-20T06:50:10;17.30;;;10.93;;
64871;SDS011;51351;51.450;6.614;2023-08-20T06:52:35;17.85;;;11.75;;
64871;SDS011;51351;51.450;6.614;2023-08-20T06:55:01;18.73;;;11.82;;
64871;SDS011;51351;51.450;6.614;2023-08-20T06:57:26;22.15;;;13.00;;
64871;SDS011;51351;51.450;6.614;2023-08-20T06:59:52;23.30;;;13.20;;
64871;SDS011;51351;51.450;6.614;2023-08-20T07:02:17;25.17;;;13.65;;
64871;SDS011;51351;51.450;6.614;2023-08-20T07:04:43;19.55;;;13.02;;
64871;SDS011;51351;51.450;6.614;2023-08-20T07:07:08;18.45;;;12.63;;
64871;SDS011;51351;51.450;6.614;2023-08-20T07:09:34;21.63;;;12.00;;
64871;SDS011;51351;51.450;6.614;2023-08-20T07:12:00;21.20;;;12.05;;
64871;SDS011;51351;51.450;6.614;2023-08-20T07:14:25;17.75;;;11.95;;
64871;SDS011;51351;51.450;6.614;2023-08-20T07:16:51;18.88;;;11.63;;
64871;SDS011;51351;51.450;6.614;2023-08-20T07:19:16;17.05;;;10.65;;
64871;SDS011;51351;51.450;6.614;2023-08-20T07:21:42;18.17;;;11.45;;
64871;SDS011;51351;51.450;6.614;2023-08-20T07:26:33;13.65;;;9.88;;
64871;SDS011;51351;51.450;6.614;2023-08-20T07:28:58;17.70;;;11.23;;
64871;SDS011;51351;51.450;6.614;2023-08-20T07:33:55;17.35;;;10.05;;
64871;SDS011;51351;51.450;6.614;2023-08-20T07:36:21;16.83;;;11.43;;
64871;SDS011;51351;51.450;6.614;2023-08-20T07:38:48;20.55;;;11.85;;
64871;SDS011;51351;51.450;6.614;2023-08-20T07:43:40;18.38;;;11.18;;
64871;SDS011;51351;51.450;6.614;2023-08-20T07:46:06;19.92;;;11.68;;
64871;SDS011;51351;51.450;6.614;2023-08-20T07:48:33;18.02;;;10.55;;
64871;SDS011;51351;51.450;6.614;2023-08-20T07:53:24;17.77;;;10.73;;
64871;SDS011;51351;51.450;6.614;2023-08-20T07:58:15;17.83;;;10.07;;
64871;SDS011;51351;51.450;6.614;2023-08-20T08:03:06;17.30;;;11.40;;
64871;SDS011;51351;51.450;6.614;2023-08-20T08:07:57;21.45;;;12.25;;
64871;SDS011;51351;51.450;6.614;2023-08-20T08:12:48;18.65;;;11.13;;
64871;SDS011;51351;51.450;6.614;2023-08-20T08:17:38;22.15;;;11.98;;
64871;SDS011;51351;51.450;6.614;2023-08-20T08:20:04;21.90;;;13.48;;
64871;SDS011;51351;51.450;6.614;2023-08-20T08:22:40;19.92;;;13.60;;
64871;SDS011;51351;51.450;6.614;2023-08-20T08:25:05;20.52;;;13.68;;
64871;SDS011;51351;51.450;6.614;2023-08-20T08:27:31;26.90;;;14.85;;
64871;SDS011;51351;51.450;6.614;2023-08-20T08:29:57;24.10;;;14.27;;
64871;SDS011;51351;51.450;6.614;2023-08-20T08:32:22;19.60;;;13.00;;
64871;SDS011;51351;51.450;6.614;2023-08-20T08:34:48;19.45;;;12.82;;
64871;SDS011;51351;51.450;6.614;2023-08-20T08:39:40;18.60;;;12.23;;
64871;SDS011;51351;51.450;6.614;2023-08-20T08:42:06;18.35;;;13.18;;
64871;SDS011;51351;51.450;6.614;2023-08-20T08:44:32;24.15;;;14.10;;
64871;SDS011;51351;51.450;6.614;2023-08-20T08:46:59;20.92;;;13.25;;
64871;SDS011;51351;51.450;6.614;2023-08-20T08:49:25;22.25;;;13.95;;
64871;SDS011;51351;51.450;6.614;2023-08-20T08:51:58;18.20;;;12.82;;
64871;SDS011;51351;51.450;6.614;2023-08-20T08:54:24;21.00;;;14.10;;
64871;SDS011;51351;51.450;6.614;2023-08-20T08:56:50;21.33;;;13.05;;
64871;SDS011;51351;51.450;6.614;2023-08-20T09:01:41;21.95;;;13.10;;
64871;SDS011;51351;51.450;6.614;2023-08-20T09:06:51;17.65;;;11.82;;
64871;SDS011;51351;51.450;6.614;2023-08-20T09:09:20;19.38;;;12.45;;
64871;SDS011;51351;51.450;6.614;2023-08-20T09:11:47;14.38;;;10.00;;
64871;SDS011;51351;51.450;6.614;2023-08-20T09:16:59;14.95;;;9.20;;
64871;SDS011;51351;51.450;6.614;2023-08-20T09:19:35;19.02;;;12.00;;
64871;SDS011;51351;51.450;6.614;2023-08-20T09:22:04;16.25;;;10.43;;
64871;SDS011;51351;51.450;6.614;2023-08-20T09:24:34;16.10;;;11.50;;
64871;SDS011;51351;51.450;6.614;2023-08-20T09:27:04;14.48;;;10.00;;
64871;SDS011;51351;51.450;6.614;2023-08-20T09:29:35;14.23;;;9.57;;
64871;SDS011;51351;51.450;6.614;2023-08-20T09:32:18;14.82;;;9.05;;
64871;SDS011;51351;51.450;6.614;2023-08-20T09:34:48;12.38;;;9.32;;
64871;SDS011;51351;51.450;6.614;2023-08-20T09:37:15;12.15;;;9.18;;
64871;SDS011;51351;51.450;6.614;2023-08-20T09:39:42;14.15;;;8.23;;
64871;SDS011;51351;51.450;6.614;2023-08-20T09:42:08;11.45;;;8.25;;
64871;SDS011;51351;51.450;6.614;2023-08-20T09:44:39;10.68;;;7.40;;
64871;SDS011;51351;51.450;6.614;2023-08-20T09:47:15;9.80;;;7.38;;
64871;SDS011;51351;51.450;6.614;2023-08-20T09:49:42;7.97;;;5.63;;
64871;SDS011;51351;51.450;6.614;2023-08-20T09:52:09;7.30;;;5.32;;
64871;SDS011;51351;51.450;6.614;2023-08-20T09:57:26;8.60;;;5.20;;
64871;SDS011;51351;51.450;6.614;2023-08-20T09:59:57;9.38;;;5.75;;
64871;SDS011;51351;51.450;6.614;2023-08-20T10:02:24;7.47;;;5.55;;
64871;SDS011;51351;51.450;6.614;2023-08-20T10:04:51;13.40;;;7.15;;
64871;SDS011;51351;51.450;6.614;2023-08-20T10:07:17;8.70;;;6.47;;
64871;SDS011;51351;51.450;6.614;2023-08-20T10:09:43;9.55;;;5.68;;
64871;SDS011;51351;51.450;6.614;2023-08-20T10:12:14;9.43;;;5.80;;
64871;SDS011;51351;51.450;6.614;2023-08-20T10:14:40;10.52;;;6.00;;
64871;SDS011;51351;51.450;6.614;2023-08-20T10:17:09;9.35;;;7.05;;
64871;SDS011;51351;51.450;6.614;2023-08-20T10:19:37;11.63;;;7.65;;
64871;SDS011;51351;51.450;6.614;2023-08-20T10:22:03;10.43;;;8.20;;
64871;SDS011;51351;51.450;6.614;2023-08-20T10:24:39;14.38;;;10.63;;
64871;SDS011;51351;51.450;6.614;2023-08-20T10:27:09;13.27;;;9.73;;
64871;SDS011;51351;51.450;6.614;2023-08-20T10:29:36;13.48;;;8.88;;
64871;SDS011;51351;51.450;6.614;2023-08-20T10:32:10;12.65;;;9.10;;
64871;SDS011;51351;51.450;6.614;2023-08-20T10:34:37;11.23;;;8.55;;
64871;SDS011;51351;51.450;6.614;2023-08-20T10:37:14;9.27;;;7.22;;
64871;SDS011;51351;51.450;6.614;2023-08-20T10:39:40;13.77;;;7.57;;
64871;SDS011;51351;51.450;6.614;2023-08-20T10:47:47;7.85;;;6.10;;
64871;SDS011;51351;51.450;6.614;2023-08-20T10:50:17;8.82;;;5.90;;
64871;SDS011;51351;51.450;6.614;2023-08-20T10:52:47;11.75;;;7.35;;
64871;SDS011;51351;51.450;6.614;2023-08-20T10:55:14;13.68;;;6.45;;
64871;SDS011;51351;51.450;6.614;2023-08-20T10:57:40;7.15;;;5.32;;
64871;SDS011;51351;51.450;6.614;2023-08-20T11:00:06;6.75;;;5.25;;
64871;SDS011;51351;51.450;6.614;2023-08-20T11:02:39;6.28;;;5.05;;
64871;SDS011;51351;51.450;6.614;2023-08-20T11:05:16;13.13;;;6.18;;
64871;SDS011;51351;51.450;6.614;2023-08-20T11:07:44;5.22;;;4.03;;
64871;SDS011;51351;51.450;6.614;2023-08-20T11:10:15;8.95;;;5.18;;
64871;SDS011;51351;51.450;6.614;2023-08-20T11:12:42;7.90;;;4.93;;
64871;SDS011;51351;51.450;6.614;2023-08-20T11:15:11;8.50;;;4.55;;
64871;SDS011;51351;51.450;6.614;2023-08-20T11:17:40;5.72;;;3.95;;
64871;SDS011;51351;51.450;6.614;2023-08-20T11:20:07;6.30;;;3.55;;
64871;SDS011;51351;51.450;6.614;2023-08-20T11:22:33;5.40;;;3.67;;
64871;SDS011;51351;51.450;6.614;2023-08-20T11:24:59;7.68;;;3.67;;
64871;SDS011;51351;51.450;6.614;2023-08-20T11:27:28;5.60;;;3.72;;
64871;SDS011;51351;51.450;6.614;2023-08-20T11:29:53;7.85;;;3.85;;
64871;SDS011;51351;51.450;6.614;2023-08-20T11:32:21;7.13;;;3.50;;
64871;SDS011;51351;51.450;6.614;2023-08-20T11:34:48;6.20;;;3.17;;
64871;SDS011;51351;51.450;6.614;2023-08-20T11:37:17;6.53;;;3.55;;
64871;SDS011;51351;51.450;6.614;2023-08-20T11:39:47;5.10;;;2.78;;
64871;SDS011;51351;51.450;6.614;2023-08-20T11:42:13;5.60;;;3.33;;
64871;SDS011;51351;51.450;6.614;2023-08-20T11:44:46;4.93;;;3.08;;
64871;SDS011;51351;51.450;6.614;2023-08-20T11:47:18;5.18;;;2.97;;
64871;SDS011;51351;51.450;6.614;2023-08-20T11:49:44;7.15;;;2.47;;
64871;SDS011;51351;51.450;6.614;2023-08-20T11:52:10;4.68;;;2.40;;
64871;SDS011;51351;51.450;6.614;2023-08-20T11:54:37;5.18;;;2.60;;
64871;SDS011;51351;51.450;6.614;2023-08-20T11:57:04;6.03;;;2.28;;
64871;SDS011;51351;51.450;6.614;2023-08-20T11:59:31;6.65;;;2.75;;
64871;SDS011;51351;51.450;6.614;2023-08-20T12:01:57;5.60;;;2.40;;
64871;SDS011;51351;51.450;6.614;2023-08-20T12:04:25;4.68;;;2.75;;
64871;SDS011;51351;51.450;6.614;2023-08-20T12:07:08;5.03;;;2.28;;
64871;SDS011;51351;51.450;6.614;2023-08-20T12:09:34;7.40;;;2.28;;
64871;SDS011;51351;51.450;6.614;2023-08-20T12:12:00;5.05;;;2.30;;
64871;SDS011;51351;51.450;6.614;2023-08-20T12:14:26;4.80;;;2.17;;
64871;SDS011;51351;51.450;6.614;2023-08-20T12:16:55;6.90;;;2.20;;
64871;SDS011;51351;51.450;6.614;2023-08-20T12:19:21;4.80;;;2.03;;
64871;SDS011;51351;51.450;6.614;2023-08-20T12:21:47;3.13;;;2.00;;
64871;SDS011;51351;51.450;6.614;2023-08-20T12:24:13;4.65;;;2.03;;
64871;SDS011;51351;51.450;6.614;2023-08-20T12:26:39;5.43;;;2.05;;
64871;SDS011;51351;51.450;6.614;2023-08-20T12:29:05;7.43;;;1.95;;
64871;SDS011;51351;51.450;6.614;2023-08-20T12:31:31;4.72;;;1.60;;
64871;SDS011;51351;51.450;6.614;2023-08-20T12:33:57;5.78;;;1.45;;
64871;SDS011;51351;51.450;6.614;2023-08-20T12:36:22;3.25;;;1.80;;
64871;SDS011;51351;51.450;6.614;2023-08-20T12:38:48;7.85;;;1.35;;
64871;SDS011;51351;51.450;6.614;2023-08-20T12:41:13;5.55;;;1.90;;
64871;SDS011;51351;51.450;6.614;2023-08-20T12:43:40;4.07;;;1.45;;
64871;SDS011;51351;51.450;6.614;2023-08-20T12:46:06;3.60;;;1.30;;
64871;SDS011;51351;51.450;6.614;2023-08-20T12:48:31;3.85;;;1.40;;
64871;SDS011;51351;51.450;6.614;2023-08-20T12:50:57;3.90;;;1.30;;
64871;SDS011;51351;51.450;6.614;2023-08-20T12:53:23;3.10;;;1.00;;
64871;SDS011;51351;51.450;6.614;2023-08-20T12:55:49;5.18;;;1.20;;
64871;SDS011;51351;51.450;6.614;2023-08-20T12:58:14;3.35;;;1.02;;
64871;SDS011;51351;51.450;6.614;2023-08-20T13:00:39;3.85;;;1.45;;
64871;SDS011;51351;51.450;6.614;2023-08-20T13:03:05;4.10;;;1.20;;
64871;SDS011;51351;51.450;6.614;2023-08-20T13:05:31;4.53;;;1.45;;
64871;SDS011;51351;51.450;6.614;2023-08-20T13:07:57;4.75;;;1.08;;
64871;SDS011;51351;51.450;6.614;2023-08-20T13:10:23;4.07;;;1.20;;
64871;SDS011;51351;51.450;6.614;2023-08-20T13:12:50;4.70;;;1.60;;
64871;SDS011;51351;51.450;6.614;2023-08-20T13:15:18;4.85;;;1.70;;
64871;SDS011;51351;51.450;6.614;2023-08-20T13:17:46;4.97;;;1.40;;
64871;SDS011;51351;51.450;6.614;2023-08-20T13:20:14;6.80;;;1.23;;
64871;SDS011;51351;51.450;6.614;2023-08-20T13:22:40;4.68;;;1.13;;
64871;SDS011;51351;51.450;6.614;2023-08-20T13:25:06;6.00;;;1.60;;
64871;SDS011;51351;51.450;6.614;2023-08-20T13:27:32;2.90;;;1.50;;
64871;SDS011;51351;51.450;6.614;2023-08-20T13:29:58;4.13;;;1.40;;
64871;SDS011;51351;51.450;6.614;2023-08-20T13:32:23;6.07;;;1.30;;
64871;SDS011;51351;51.450;6.614;2023-08-20T13:34:49;2.67;;;1.52;;
64871;SDS011;51351;51.450;6.614;2023-08-20T13:37:15;2.92;;;1.40;;
64871;SDS011;51351;51.450;6.614;2023-08-20T13:39:41;3.10;;;1.40;;
64871;SDS011;51351;51.450;6.614;2023-08-20T13:42:06;6.03;;;1.77;;
64871;SDS011;51351;51.450;6.614;2023-08-20T13:44:32;3.42;;;1.52;;
64871;SDS011;51351;51.450;6.614;2023-08-20T13:46:58;4.65;;;1.42;;
64871;SDS011;51351;51.450;6.614;2023-08-20T13:49:24;4.50;;;1.50;;
64871;SDS011;51351;51.450;6.614;2023-08-20T13:51:50;5.78;;;2.03;;
64871;SDS011;51351;51.450;6.614;2023-08-20T13:54:15;5.07;;;1.45;;
64871;SDS011;51351;51.450;6.614;2023-08-20T13:56:41;5.25;;;1.85;;
64871;SDS011;51351;51.450;6.614;2023-08-20T13:59:08;6.45;;;1.77;;
64871;SDS011;51351;51.450;6.614;2023-08-20T14:01:35;3.30;;;1.63;;
64871;SDS011;51351;51.450;6.614;2023-08-20T14:04:01;1.85;;;1.30;;
64871;SDS011;51351;51.450;6.614;2023-08-20T14:06:27;4.65;;;1.67;;
64871;SDS011;51351;51.450;6.614;2023-08-20T14:08:53;3.25;;;1.52;;
64871;SDS011;51351;51.450;6.614;2023-08-20T14:11:18;3.88;;;1.60;;
64871;SDS011;51351;51.450;6.614;2023-08-20T14:13:43;5.35;;;1.80;;
64871;SDS011;51351;51.450;6.614;2023-08-20T14:16:09;3.63;;;1.40;;
64871;SDS011;51351;51.450;6.614;2023-08-20T14:18:34;4.30;;;1.70;;
64871;SDS011;51351;51.450;6.614;2023-08-20T14:21:00;4.78;;;1.80;;
64871;SDS011;51351;51.450;6.614;2023-08-20T14:23:25;4.10;;;1.63;;
64871;SDS011;51351;51.450;6.614;2023-08-20T14:25:51;3.28;;;1.25;;
64871;SDS011;51351;51.450;6.614;2023-08-20T14:28:19;4.50;;;1.27;;
64871;SDS011;51351;51.450;6.614;2023-08-20T14:30:45;4.53;;;1.30;;
64871;SDS011;51351;51.450;6.614;2023-08-20T14:33:10;2.58;;;1.20;;
64871;SDS011;51351;51.450;6.614;2023-08-20T14:35:36;3.97;;;2.03;;
64871;SDS011;51351;51.450;6.614;2023-08-20T14:38:02;4.15;;;1.75;;
64871;SDS011;51351;51.450;6.614;2023-08-20T14:40:28;3.65;;;1.20;;
64871;SDS011;51351;51.450;6.614;2023-08-20T14:42:59;2.47;;;1.25;;
64871;SDS011;51351;51.450;6.614;2023-08-20T14:45:24;5.10;;;1.05;;
64871;SDS011;51351;51.450;6.614;2023-08-20T14:47:50;2.45;;;0.95;;
64871;SDS011;51351;51.450;6.614;2023-08-20T14:50:16;2.47;;;0.98;;
64871;SDS011;51351;51.450;6.614;2023-08-20T14:52:41;6.38;;;1.30;;
64871;SDS011;51351;51.450;6.614;2023-08-20T14:55:07;3.03;;;1.35;;
64871;SDS011;51351;51.450;6.614;2023-08-20T14:57:34;2.90;;;1.23;;
64871;SDS011;51351;51.450;6.614;2023-08-20T15:00:00;5.03;;;1.48;;
64871;SDS011;51351;51.450;6.614;2023-08-20T15:02:25;3.85;;;1.15;;
64871;SDS011;51351;51.450;6.614;2023-08-20T15:04:51;4.55;;;1.20;;
64871;SDS011;51351;51.450;6.614;2023-08-20T15:07:16;5.55;;;1.48;;
64871;SDS011;51351;51.450;6.614;2023-08-20T15:09:42;3.75;;;1.33;;
64871;SDS011;51351;51.450;6.614;2023-08-20T15:12:08;5.80;;;1.17;;
64871;SDS011;51351;51.450;6.614;2023-08-20T15:14:33;4.10;;;1.60;;
64871;SDS011;51351;51.450;6.614;2023-08-20T15:16:59;4.25;;;2.03;;
64871;SDS011;51351;51.450;6.614;2023-08-20T15:19:24;4.00;;;1.30;;
64871;SDS011;51351;51.450;6.614;2023-08-20T15:21:50;3.28;;;1.20;;
64871;SDS011;51351;51.450;6.614;2023-08-20T15:24:15;3.42;;;1.20;;
64871;SDS011;51351;51.450;6.614;2023-08-20T15:26:40;2.83;;;1.08;;
64871;SDS011;51351;51.450;6.614;2023-08-20T15:29:06;2.72;;;1.23;;
64871;SDS011;51351;51.450;6.614;2023-08-20T15:31:31;5.20;;;1.58;;
64871;SDS011;51351;51.450;6.614;2023-08-20T15:33:57;3.67;;;1.30;;